Time,TemperatureF,DewpointF,PressureIn,WindDirection,WindDirectionDegrees,WindSpeedMPH,WindSpeedGustMPH,Humidity,HourlyPrecipIn,Conditions,Clouds,dailyrainin,SoftwareType,DateUTC
2013-07-09 00:02:00,75.0,73.0,-100.00,SSW,210,3.0,5.0,93,0.00,,,-99.99,,2013-07-09 04:02:00,
2013-07-09 00:11:00,75.0,73.0,-100.00,SW,230,2.0,4.0,93,0.00,,,-99.99,,2013-07-09 04:11:00,
2013-07-09 00:42:00,74.0,72.0,-100.00,SW,225,4.0,6.0,93,0.00,,,-99.99,,2013-07-09 04:42:00,
2013-07-09 01:02:00,74.0,72.0,-100.00,SW,225,4.0,6.0,93,0.00,,,-99.99,,2013-07-09 05:02:00,
2013-07-09 01:22:00,75.0,73.0,-100.00,SW,225,4.0,6.0,93,0.00,,,-99.99,,2013-07-09 05:22:00,
2013-07-09 01:33:00,74.0,72.0,-100.00,SW,235,4.0,5.0,94,0.00,,,-99.99,,2013-07-09 05:33:00,
2013-07-09 01:42:00,74.0,72.0,-100.00,SW,235,4.0,5.0,94,0.00,,,-99.99,,2013-07-09 05:42:00,
2013-07-09 02:01:00,74.0,72.0,-100.00,SW,235,3.0,4.0,95,0.00,,,-99.99,,2013-07-09 06:01:00,
2013-07-09 02:11:00,74.0,72.0,-100.00,WSW,240,4.0,6.0,95,0.00,,,-99.99,,2013-07-09 06:11:00,
2013-07-09 02:43:00,75.0,72.0,-100.00,WSW,250,6.0,9.0,92,0.00,,,-99.99,,2013-07-09 06:43:00,
2013-07-09 02:53:00,74.0,72.0,-100.00,WSW,245,4.0,7.0,92,0.00,,,-99.99,,2013-07-09 06:53:00,
2013-07-09 03:02:00,75.0,72.0,-100.00,WSW,255,5.0,7.0,92,0.00,,,-99.99,,2013-07-09 07:02:00,
2013-07-09 03:12:00,75.0,72.0,-100.00,WSW,255,6.0,9.0,91,0.00,,,-99.99,,2013-07-09 07:12:00,
2013-07-09 03:34:00,74.0,72.0,-100.00,WSW,245,5.0,7.0,92,0.00,,,-99.99,,2013-07-09 07:34:00,
2013-07-09 03:43:00,74.0,72.0,-100.00,WSW,250,6.0,8.0,92,0.00,,,-99.99,,2013-07-09 07:43:00,
2013-07-09 03:53:00,75.0,72.0,-100.00,WSW,255,6.0,9.0,91,0.00,,,-99.99,,2013-07-09 07:53:00,
2013-07-09 04:01:00,74.0,72.0,-100.00,West,260,6.0,7.0,91,0.00,,,-99.99,,2013-07-09 08:01:00,
2013-07-09 04:43:00,75.0,72.0,-100.00,WSW,255,6.0,9.0,91,0.00,,,-99.99,,2013-07-09 08:43:00,
2013-07-09 04:52:00,75.0,72.0,-100.00,West,260,6.0,8.0,90,0.00,,,-99.99,,2013-07-09 08:52:00,
2013-07-09 05:02:00,75.0,72.0,-100.00,WSW,255,6.0,8.0,90,0.00,,,-99.99,,2013-07-09 09:02:00,
2013-07-09 05:12:00,75.0,72.0,-100.00,WSW,250,6.0,8.0,90,0.00,,,-99.99,,2013-07-09 09:12:00,
2013-07-09 05:42:00,74.0,72.0,-100.00,WSW,255,4.0,8.0,91,0.00,,,-99.99,,2013-07-09 09:42:00,
2013-07-09 06:01:00,74.0,72.0,-100.00,West,260,4.0,7.0,92,0.00,,,-99.99,,2013-07-09 10:01:00,
2013-07-09 06:33:00,73.0,71.0,-100.00,WSW,255,4.0,6.0,92,0.00,,,-99.99,,2013-07-09 10:33:00,
2013-07-09 06:42:00,73.0,71.0,-100.00,WSW,245,4.0,7.0,93,0.00,,,-99.99,,2013-07-09 10:42:00,
2013-07-09 07:01:00,74.0,71.0,-100.00,WSW,255,4.0,7.0,92,0.00,,,-99.99,,2013-07-09 11:01:00,
2013-07-09 07:11:00,74.0,71.0,-100.00,WSW,255,6.0,7.0,92,0.00,,,-99.99,,2013-07-09 11:11:00,
2013-07-09 07:53:00,75.0,72.0,-100.00,WSW,245,4.0,6.0,91,0.00,,,-99.99,,2013-07-09 11:53:00,
2013-07-09 09:43:00,79.0,73.0,-100.00,WSW,250,9.0,13.0,83,0.00,,,-99.99,,2013-07-09 13:43:00,
2013-07-09 10:01:00,79.0,73.0,-100.00,West,275,10.0,13.0,80,0.00,,,-99.99,,2013-07-09 14:01:00,
2013-07-09 10:43:00,82.0,74.0,-100.00,WNW,285,7.0,12.0,75,0.00,,,-99.99,,2013-07-09 14:43:00,
2013-07-09 11:02:00,83.0,74.0,-100.00,West,265,8.0,10.0,75,0.00,,,-99.99,,2013-07-09 15:02:00,
2013-07-09 11:12:00,83.0,74.0,-100.00,West,275,8.0,11.0,74,0.00,,,-99.99,,2013-07-09 15:12:00,
2013-07-09 11:22:00,83.0,74.0,-100.00,West,265,7.0,12.0,73,0.00,,,-99.99,,2013-07-09 15:22:00,
2013-07-09 11:33:00,83.0,74.0,-100.00,West,270,6.0,11.0,73,0.00,,,-99.99,,2013-07-09 15:33:00,
2013-07-09 11:43:00,84.0,75.0,-100.00,WNW,295,6.0,11.0,73,0.00,,,-99.99,,2013-07-09 15:43:00,
2013-07-09 12:11:00,85.0,73.0,-100.00,West,275,8.0,12.0,66,0.00,,,-99.99,,2013-07-09 16:11:00,
2013-07-09 12:22:00,85.0,75.0,-100.00,West,260,7.0,12.0,70,0.00,,,-99.99,,2013-07-09 16:22:00,
2013-07-09 12:34:00,86.0,73.0,-100.00,WSW,255,9.0,12.0,65,0.00,,,-99.99,,2013-07-09 16:34:00,
2013-07-09 12:43:00,86.0,75.0,-100.00,WSW,245,9.0,14.0,70,0.00,,,-99.99,,2013-07-09 16:43:00,
2013-07-09 13:02:00,86.0,75.0,-100.00,West,260,8.0,16.0,68,0.00,,,-99.99,,2013-07-09 17:02:00,
2013-07-09 13:11:00,86.0,74.0,-100.00,SW,235,8.0,12.0,67,0.00,,,-99.99,,2013-07-09 17:11:00,
2013-07-09 13:22:00,85.0,73.0,-100.00,WSW,250,9.0,14.0,68,0.00,,,-99.99,,2013-07-09 17:22:00,
2013-07-09 13:35:00,87.0,75.0,-100.00,West,275,7.0,13.0,68,0.00,,,-99.99,,2013-07-09 17:35:00,
2013-07-09 13:45:00,84.0,75.0,-100.00,WSW,245,8.0,14.0,73,0.00,,,-99.99,,2013-07-09 17:45:00,
2013-07-09 13:53:00,87.0,74.0,-100.00,WNW,285,9.0,13.0,65,0.00,,,-99.99,,2013-07-09 17:53:00,
2013-07-09 14:22:00,83.0,75.0,-100.00,WNW,290,6.0,16.0,74,0.00,,,-99.99,,2013-07-09 18:22:00,
2013-07-09 14:43:00,87.0,76.0,-100.00,NNW,330,2.0,6.0,71,0.00,,,-99.99,,2013-07-09 18:43:00,
2013-07-09 15:01:00,87.0,74.0,-100.00,West,275,9.0,14.0,66,0.00,,,-99.99,,2013-07-09 19:01:00,
2013-07-09 15:11:00,87.0,73.0,-100.00,West,260,11.0,12.0,64,0.00,,,-99.99,,2013-07-09 19:11:00,
2013-07-09 15:22:00,87.0,73.0,-100.00,West,265,12.0,17.0,62,0.00,,,-99.99,,2013-07-09 19:22:00,
2013-07-09 16:11:00,85.0,73.0,-100.00,WSW,255,9.0,12.0,67,0.00,,,-99.99,,2013-07-09 20:11:00,
2013-07-09 16:22:00,85.0,73.0,-100.00,WSW,255,8.0,15.0,68,0.00,,,-99.99,,2013-07-09 20:22:00,
2013-07-09 16:32:00,85.0,73.0,-100.00,West,275,7.0,10.0,67,0.00,,,-99.99,,2013-07-09 20:32:00,
2013-07-09 16:43:00,84.0,72.0,-100.00,West,280,6.0,9.0,68,0.00,,,-99.99,,2013-07-09 20:43:00,
2013-07-09 17:01:00,83.0,73.0,-100.00,WNW,285,4.0,8.0,70,0.00,,,-99.99,,2013-07-09 21:01:00,
2013-07-09 18:01:00,80.0,73.0,-100.00,NW,305,4.0,6.0,80,0.00,,,-99.99,,2013-07-09 22:01:00,
2013-07-09 18:33:00,32.0,32.0,-100.00,North,0,0.0,0.0,0,0.00,,,-99.99,,2013-07-09 22:33:00,
2013-07-09 18:42:00,78.0,73.0,-100.00,NNE,25,2.0,4.0,83,0.00,,,-99.99,,2013-07-09 22:42:00,
2013-07-09 19:02:00,79.0,73.0,-100.00,East,90,1.0,6.0,81,0.00,,,-99.99,,2013-07-09 23:02:00,
2013-07-09 19:33:00,81.0,73.0,-100.00,West,260,1.0,3.0,76,0.00,,,-99.99,,2013-07-09 23:33:00,
2013-07-09 19:43:00,81.0,74.0,-100.00,SSE,155,1.0,3.0,79,0.00,,,-99.99,,2013-07-09 23:43:00,
2013-07-09 19:53:00,80.0,74.0,-100.00,SSE,165,4.0,5.0,82,0.00,,,-99.99,,2013-07-09 23:53:00,
2013-07-09 20:01:00,80.0,74.0,-100.00,SSE,155,2.0,4.0,82,0.00,,,-99.99,,2013-07-10 00:01:00,
2013-07-09 20:11:00,80.0,75.0,-100.00,SE,145,2.0,4.0,83,0.00,,,-99.99,,2013-07-10 00:11:00,
2013-07-09 20:22:00,80.0,75.0,-100.00,SE,145,2.0,4.0,83,0.00,,,-99.99,,2013-07-10 00:22:00,
2013-07-09 20:33:00,80.0,75.0,-100.00,SSE,160,2.0,5.0,84,0.00,,,-99.99,,2013-07-10 00:33:00,
2013-07-09 20:42:00,81.0,73.0,-100.00,SSW,205,6.0,7.0,78,0.00,,,-99.99,,2013-07-10 00:42:00,
2013-07-09 20:52:00,80.0,74.0,-100.00,SSW,200,5.0,7.0,79,0.00,,,-99.99,,2013-07-10 00:52:00,
2013-07-09 21:01:00,79.0,74.0,-100.00,SSW,195,4.0,6.0,83,0.00,,,-99.99,,2013-07-10 01:01:00,
2013-07-09 21:11:00,79.0,74.0,-100.00,South,190,4.0,6.0,85,0.00,,,-99.99,,2013-07-10 01:11:00,
2013-07-09 21:33:00,79.0,74.0,-100.00,SSW,195,4.0,6.0,85,0.00,,,-99.99,,2013-07-10 01:33:00,
2013-07-09 22:43:00,78.0,74.0,-100.00,South,185,4.0,7.0,89,0.00,,,-99.99,,2013-07-10 02:43:00,
2013-07-09 23:43:00,79.0,74.0,-100.00,SSW,205,6.0,10.0,84,0.00,,,-99.99,,2013-07-10 03:43:00,